CheckWX is a tool to help pilots better visualize weather data.  It is not intended as a substitute for an official pre-flight weather briefing.

04:25:30 UTC

ENRM METAR
Rørvik , Ryum Airport
Rørvik, Norway
Current

9 hours ago

ENRM 241950Z 09006KT CAVOK 13/M01 Q1019
Observed
Apr-24 @ 19:50 UTC
Wind
  • 090° at 6 KTS
Visibility
10,000+ meters
Flight Rules
VFR
Cloud Levels
  • Clear skies
Temperature
13°C / 55°F
Dewpoint
-1°C / 30°F
Humidity
38%
Altimeter
30.09" Hg
Pressure
1018.92 hPa
Previous

9 hours ago

ENRM 241920Z 10005KT CAVOK 13/M01 Q1018
Observed
Apr-24 @ 19:20 UTC
Wind
  • 100° at 5 KTS
Visibility
10,000+ meters
Flight Rules
VFR
Cloud Levels
  • Clear skies
Temperature
13°C / 55°F
Dewpoint
-1°C / 30°F
Humidity
38%
Altimeter
30.06" Hg
Pressure
1017.92 hPa
Previous

10 hours ago

ENRM 241850Z 11006KT CAVOK 15/M02 Q1019
Observed
Apr-24 @ 18:50 UTC
Wind
  • 110° at 6 KTS
Visibility
10,000+ meters
Flight Rules
VFR
Cloud Levels
  • Clear skies
Temperature
15°C / 59°F
Dewpoint
-2°C / 28°F
Humidity
31%
Altimeter
30.09" Hg
Pressure
1018.92 hPa